Hollins, Alabama
Current Conditions -  °F | °C
As of 4:35 AM on Thursday 23 Oct 2014 (Local Time) from KSCD Reporting Station
Clear Clear  
Wind Chill: 47°   Ceiling: Unl
Heat Index: 47°   Visibility: 10mi
Dew Point: 44°   Wind: 3mph
Humidity: 88%   Direction: 50°NE
Pressure: 30.11"   Gusts: NA
Location:  33.12°N, 86.14°W
Report Text: KSCD 230935Z AUTO 05003KT 10SM CLR 09/07 A3011 RMK AO2 T00850067
Loading
Personal Weather Stations






























Interactive Weather Map
Tropical Storm Tracking
New forecast layout! Learn more

10-Day Weather Forecast

Advertisements
Track Severe Weather on mobile